sensor_id;sensor_type;location;lat;lon;timestamp;P1;durP1;ratioP1;P2;durP2;ratioP2
35648;SDS011;21768;48.562;13.414;2024-01-11T00:01:58;64.82;;;23.50;;
35648;SDS011;21768;48.562;13.414;2024-01-11T00:04:24;62.80;;;23.27;;
35648;SDS011;21768;48.562;13.414;2024-01-11T00:06:50;60.75;;;23.42;;
35648;SDS011;21768;48.562;13.414;2024-01-11T00:09:15;58.42;;;21.75;;
35648;SDS011;21768;48.562;13.414;2024-01-11T00:11:41;61.13;;;21.70;;
35648;SDS011;21768;48.562;13.414;2024-01-11T00:14:06;59.28;;;21.25;;
35648;SDS011;21768;48.562;13.414;2024-01-11T00:16:32;69.72;;;22.20;;
35648;SDS011;21768;48.562;13.414;2024-01-11T00:18:57;59.28;;;21.65;;
35648;SDS011;21768;48.562;13.414;2024-01-11T00:21:23;61.95;;;23.20;;
35648;SDS011;21768;48.562;13.414;2024-01-11T00:23:48;64.22;;;21.65;;
35648;SDS011;21768;48.562;13.414;2024-01-11T00:26:14;51.08;;;20.52;;
35648;SDS011;21768;48.562;13.414;2024-01-11T00:28:40;52.22;;;20.38;;
35648;SDS011;21768;48.562;13.414;2024-01-11T00:31:05;70.38;;;22.15;;
35648;SDS011;21768;48.562;13.414;2024-01-11T00:33:30;67.00;;;21.45;;
35648;SDS011;21768;48.562;13.414;2024-01-11T00:35:56;51.28;;;20.15;;
35648;SDS011;21768;48.562;13.414;2024-01-11T00:38:21;60.28;;;21.73;;
35648;SDS011;21768;48.562;13.414;2024-01-11T00:40:46;58.33;;;22.00;;
35648;SDS011;21768;48.562;13.414;2024-01-11T00:43:12;58.58;;;21.23;;
35648;SDS011;21768;48.562;13.414;2024-01-11T00:45:37;59.72;;;21.38;;
35648;SDS011;21768;48.562;13.414;2024-01-11T00:48:03;67.00;;;21.15;;
35648;SDS011;21768;48.562;13.414;2024-01-11T00:50:29;61.17;;;22.35;;
35648;SDS011;21768;48.562;13.414;2024-01-11T00:52:55;56.13;;;20.63;;
35648;SDS011;21768;48.562;13.414;2024-01-11T00:55:20;58.55;;;21.40;;
35648;SDS011;21768;48.562;13.414;2024-01-11T00:57:45;62.25;;;21.92;;
35648;SDS011;21768;48.562;13.414;2024-01-11T01:00:11;66.55;;;21.88;;
35648;SDS011;21768;48.562;13.414;2024-01-11T01:02:40;51.88;;;21.83;;
35648;SDS011;21768;48.562;13.414;2024-01-11T01:05:05;67.18;;;22.15;;
35648;SDS011;21768;48.562;13.414;2024-01-11T01:07:31;67.07;;;22.10;;
35648;SDS011;21768;48.562;13.414;2024-01-11T01:09:57;52.97;;;21.15;;
35648;SDS011;21768;48.562;13.414;2024-01-11T01:12:22;53.42;;;21.95;;
35648;SDS011;21768;48.562;13.414;2024-01-11T01:14:50;62.78;;;21.80;;
35648;SDS011;21768;48.562;13.414;2024-01-11T01:17:15;58.42;;;21.17;;
35648;SDS011;21768;48.562;13.414;2024-01-11T01:19:41;51.38;;;19.27;;
35648;SDS011;21768;48.562;13.414;2024-01-11T01:22:06;58.70;;;20.90;;
35648;SDS011;21768;48.562;13.414;2024-01-11T01:24:31;57.58;;;20.98;;
35648;SDS011;21768;48.562;13.414;2024-01-11T01:26:57;55.25;;;19.00;;
35648;SDS011;21768;48.562;13.414;2024-01-11T01:29:24;55.80;;;19.75;;
35648;SDS011;21768;48.562;13.414;2024-01-11T01:31:49;56.38;;;19.65;;
35648;SDS011;21768;48.562;13.414;2024-01-11T01:34:14;66.68;;;21.23;;
35648;SDS011;21768;48.562;13.414;2024-01-11T01:36:40;53.83;;;19.95;;
35648;SDS011;21768;48.562;13.414;2024-01-11T01:39:05;53.88;;;19.33;;
35648;SDS011;21768;48.562;13.414;2024-01-11T01:41:31;50.25;;;19.60;;
35648;SDS011;21768;48.562;13.414;2024-01-11T01:43:56;64.50;;;19.42;;
35648;SDS011;21768;48.562;13.414;2024-01-11T01:46:23;56.17;;;20.83;;
35648;SDS011;21768;48.562;13.414;2024-01-11T01:48:49;57.45;;;19.85;;
35648;SDS011;21768;48.562;13.414;2024-01-11T01:51:16;60.63;;;21.23;;
35648;SDS011;21768;48.562;13.414;2024-01-11T01:53:42;55.65;;;19.98;;
35648;SDS011;21768;48.562;13.414;2024-01-11T01:56:08;58.72;;;20.63;;
35648;SDS011;21768;48.562;13.414;2024-01-11T01:58:34;63.05;;;21.45;;
35648;SDS011;21768;48.562;13.414;2024-01-11T02:01:01;55.67;;;20.40;;
35648;SDS011;21768;48.562;13.414;2024-01-11T02:03:27;54.47;;;21.08;;
35648;SDS011;21768;48.562;13.414;2024-01-11T02:05:54;57.28;;;21.08;;
35648;SDS011;21768;48.562;13.414;2024-01-11T02:08:21;59.08;;;21.08;;
35648;SDS011;21768;48.562;13.414;2024-01-11T02:10:50;52.03;;;20.85;;
35648;SDS011;21768;48.562;13.414;2024-01-11T02:13:16;56.40;;;21.13;;
35648;SDS011;21768;48.562;13.414;2024-01-11T02:15:42;56.50;;;19.95;;
35648;SDS011;21768;48.562;13.414;2024-01-11T02:18:09;57.92;;;20.55;;
35648;SDS011;21768;48.562;13.414;2024-01-11T02:20:35;53.50;;;19.25;;
35648;SDS011;21768;48.562;13.414;2024-01-11T02:23:04;44.90;;;18.67;;
35648;SDS011;21768;48.562;13.414;2024-01-11T02:25:31;54.05;;;21.35;;
35648;SDS011;21768;48.562;13.414;2024-01-11T02:27:56;54.60;;;19.52;;
35648;SDS011;21768;48.562;13.414;2024-01-11T02:30:22;55.15;;;21.08;;
35648;SDS011;21768;48.562;13.414;2024-01-11T02:32:48;52.55;;;18.35;;
35648;SDS011;21768;48.562;13.414;2024-01-11T02:35:15;53.70;;;20.85;;
35648;SDS011;21768;48.562;13.414;2024-01-11T02:37:41;56.20;;;21.15;;
35648;SDS011;21768;48.562;13.414;2024-01-11T02:40:07;55.92;;;20.45;;
35648;SDS011;21768;48.562;13.414;2024-01-11T02:42:33;65.63;;;20.98;;
35648;SDS011;21768;48.562;13.414;2024-01-11T02:44:59;54.60;;;19.55;;
35648;SDS011;21768;48.562;13.414;2024-01-11T02:47:25;55.72;;;19.65;;
35648;SDS011;21768;48.562;13.414;2024-01-11T02:49:51;53.22;;;19.90;;
35648;SDS011;21768;48.562;13.414;2024-01-11T02:52:16;57.17;;;20.52;;
35648;SDS011;21768;48.562;13.414;2024-01-11T02:54:41;64.95;;;21.58;;
35648;SDS011;21768;48.562;13.414;2024-01-11T02:57:07;53.42;;;20.33;;
35648;SDS011;21768;48.562;13.414;2024-01-11T02:59:32;56.10;;;20.17;;
35648;SDS011;21768;48.562;13.414;2024-01-11T03:01:57;54.83;;;19.30;;
35648;SDS011;21768;48.562;13.414;2024-01-11T03:04:23;62.88;;;20.65;;
35648;SDS011;21768;48.562;13.414;2024-01-11T03:06:48;55.60;;;20.65;;
35648;SDS011;21768;48.562;13.414;2024-01-11T03:09:13;56.63;;;20.90;;
35648;SDS011;21768;48.562;13.414;2024-01-11T03:11:39;54.60;;;19.90;;
35648;SDS011;21768;48.562;13.414;2024-01-11T03:14:04;57.55;;;20.33;;
35648;SDS011;21768;48.562;13.414;2024-01-11T03:16:29;52.63;;;19.15;;
35648;SDS011;21768;48.562;13.414;2024-01-11T03:18:55;51.58;;;19.38;;
35648;SDS011;21768;48.562;13.414;2024-01-11T03:21:20;49.10;;;19.70;;
35648;SDS011;21768;48.562;13.414;2024-01-11T03:23:46;56.65;;;19.38;;
35648;SDS011;21768;48.562;13.414;2024-01-11T03:26:15;54.42;;;19.83;;
35648;SDS011;21768;48.562;13.414;2024-01-11T03:28:41;57.33;;;19.95;;
35648;SDS011;21768;48.562;13.414;2024-01-11T03:31:07;60.30;;;20.85;;
35648;SDS011;21768;48.562;13.414;2024-01-11T03:33:35;56.40;;;21.05;;
35648;SDS011;21768;48.562;13.414;2024-01-11T03:36:07;60.05;;;21.10;;
35648;SDS011;21768;48.562;13.414;2024-01-11T03:38:33;61.58;;;20.92;;
35648;SDS011;21768;48.562;13.414;2024-01-11T03:40:59;61.33;;;21.45;;
35648;SDS011;21768;48.562;13.414;2024-01-11T03:43:24;57.35;;;20.33;;
35648;SDS011;21768;48.562;13.414;2024-01-11T03:45:50;62.45;;;20.60;;
35648;SDS011;21768;48.562;13.414;2024-01-11T03:48:15;59.17;;;20.65;;
35648;SDS011;21768;48.562;13.414;2024-01-11T03:50:40;60.92;;;20.83;;
35648;SDS011;21768;48.562;13.414;2024-01-11T03:53:05;53.10;;;19.70;;
35648;SDS011;21768;48.562;13.414;2024-01-11T03:55:31;67.78;;;21.23;;
35648;SDS011;21768;48.562;13.414;2024-01-11T03:57:56;62.63;;;21.00;;
35648;SDS011;21768;48.562;13.414;2024-01-11T04:00:21;51.38;;;20.27;;
35648;SDS011;21768;48.562;13.414;2024-01-11T04:02:47;50.35;;;19.23;;
35648;SDS011;21768;48.562;13.414;2024-01-11T04:05:12;51.63;;;19.30;;
35648;SDS011;21768;48.562;13.414;2024-01-11T04:07:38;50.67;;;19.60;;
35648;SDS011;21768;48.562;13.414;2024-01-11T04:10:03;61.03;;;19.35;;
35648;SDS011;21768;48.562;13.414;2024-01-11T04:12:29;57.33;;;20.73;;
35648;SDS011;21768;48.562;13.414;2024-01-11T04:14:54;55.88;;;19.23;;
35648;SDS011;21768;48.562;13.414;2024-01-11T04:17:19;54.83;;;19.75;;
35648;SDS011;21768;48.562;13.414;2024-01-11T04:19:45;46.72;;;18.77;;
35648;SDS011;21768;48.562;13.414;2024-01-11T04:22:10;55.20;;;19.42;;
35648;SDS011;21768;48.562;13.414;2024-01-11T04:24:36;47.53;;;18.05;;
35648;SDS011;21768;48.562;13.414;2024-01-11T04:27:01;61.72;;;20.30;;
35648;SDS011;21768;48.562;13.414;2024-01-11T04:29:26;50.10;;;19.55;;
35648;SDS011;21768;48.562;13.414;2024-01-11T04:31:52;62.60;;;19.98;;
35648;SDS011;21768;48.562;13.414;2024-01-11T04:34:17;58.45;;;21.13;;
35648;SDS011;21768;48.562;13.414;2024-01-11T04:36:42;61.75;;;21.67;;
35648;SDS011;21768;48.562;13.414;2024-01-11T04:39:08;56.53;;;20.98;;
35648;SDS011;21768;48.562;13.414;2024-01-11T04:41:36;62.35;;;19.48;;
35648;SDS011;21768;48.562;13.414;2024-01-11T04:44:02;55.78;;;19.13;;
35648;SDS011;21768;48.562;13.414;2024-01-11T04:46:27;50.15;;;18.63;;
35648;SDS011;21768;48.562;13.414;2024-01-11T04:48:52;60.20;;;18.95;;
35648;SDS011;21768;48.562;13.414;2024-01-11T04:51:19;48.65;;;18.85;;
35648;SDS011;21768;48.562;13.414;2024-01-11T04:53:44;53.03;;;19.40;;
35648;SDS011;21768;48.562;13.414;2024-01-11T04:56:13;56.92;;;19.88;;
35648;SDS011;21768;48.562;13.414;2024-01-11T04:58:40;57.13;;;20.38;;
35648;SDS011;21768;48.562;13.414;2024-01-11T05:01:17;54.05;;;18.58;;
35648;SDS011;21768;48.562;13.414;2024-01-11T05:03:43;57.38;;;20.60;;
35648;SDS011;21768;48.562;13.414;2024-01-11T05:06:16;54.63;;;19.42;;
35648;SDS011;21768;48.562;13.414;2024-01-11T05:08:41;60.55;;;19.90;;
35648;SDS011;21768;48.562;13.414;2024-01-11T05:11:07;61.42;;;19.90;;
35648;SDS011;21768;48.562;13.414;2024-01-11T05:13:32;56.00;;;20.58;;
35648;SDS011;21768;48.562;13.414;2024-01-11T05:15:58;55.88;;;18.58;;
35648;SDS011;21768;48.562;13.414;2024-01-11T05:18:23;55.33;;;19.33;;
35648;SDS011;21768;48.562;13.414;2024-01-11T05:20:48;55.10;;;19.88;;
35648;SDS011;21768;48.562;13.414;2024-01-11T05:23:14;57.53;;;18.95;;
35648;SDS011;21768;48.562;13.414;2024-01-11T05:25:39;54.90;;;19.58;;
35648;SDS011;21768;48.562;13.414;2024-01-11T05:28:04;51.88;;;17.98;;
35648;SDS011;21768;48.562;13.414;2024-01-11T05:30:30;63.80;;;21.10;;
35648;SDS011;21768;48.562;13.414;2024-01-11T05:32:55;61.63;;;24.13;;
35648;SDS011;21768;48.562;13.414;2024-01-11T05:35:21;60.30;;;22.92;;
35648;SDS011;21768;48.562;13.414;2024-01-11T05:37:49;66.03;;;22.88;;
35648;SDS011;21768;48.562;13.414;2024-01-11T05:40:15;52.92;;;19.92;;
35648;SDS011;21768;48.562;13.414;2024-01-11T05:42:40;68.05;;;21.60;;
35648;SDS011;21768;48.562;13.414;2024-01-11T05:45:05;63.00;;;20.55;;
35648;SDS011;21768;48.562;13.414;2024-01-11T05:47:31;58.30;;;22.55;;
35648;SDS011;21768;48.562;13.414;2024-01-11T05:49:56;62.13;;;22.60;;
35648;SDS011;21768;48.562;13.414;2024-01-11T05:52:22;58.30;;;22.17;;
35648;SDS011;21768;48.562;13.414;2024-01-11T05:54:47;57.90;;;20.35;;
35648;SDS011;21768;48.562;13.414;2024-01-11T05:57:12;62.28;;;21.42;;
35648;SDS011;21768;48.562;13.414;2024-01-11T05:59:42;62.97;;;20.23;;
35648;SDS011;21768;48.562;13.414;2024-01-11T06:02:08;63.50;;;21.50;;
35648;SDS011;21768;48.562;13.414;2024-01-11T06:04:34;55.60;;;21.80;;
35648;SDS011;21768;48.562;13.414;2024-01-11T06:06:59;65.43;;;23.27;;
35648;SDS011;21768;48.562;13.414;2024-01-11T06:09:24;62.83;;;21.30;;
35648;SDS011;21768;48.562;13.414;2024-01-11T06:11:50;58.78;;;20.55;;
35648;SDS011;21768;48.562;13.414;2024-01-11T06:14:15;55.55;;;20.23;;
35648;SDS011;21768;48.562;13.414;2024-01-11T06:16:41;59.15;;;20.00;;
35648;SDS011;21768;48.562;13.414;2024-01-11T06:19:07;54.35;;;19.70;;
35648;SDS011;21768;48.562;13.414;2024-01-11T06:21:33;59.10;;;19.88;;
35648;SDS011;21768;48.562;13.414;2024-01-11T06:23:59;53.47;;;18.60;;
35648;SDS011;21768;48.562;13.414;2024-01-11T06:26:24;70.00;;;21.85;;
35648;SDS011;21768;48.562;13.414;2024-01-11T06:28:49;52.90;;;20.10;;
35648;SDS011;21768;48.562;13.414;2024-01-11T06:31:15;54.15;;;20.08;;
35648;SDS011;21768;48.562;13.414;2024-01-11T06:33:40;60.40;;;21.55;;
35648;SDS011;21768;48.562;13.414;2024-01-11T06:36:06;52.75;;;19.67;;
35648;SDS011;21768;48.562;13.414;2024-01-11T06:38:32;55.90;;;20.13;;
35648;SDS011;21768;48.562;13.414;2024-01-11T06:40:58;52.20;;;18.95;;
35648;SDS011;21768;48.562;13.414;2024-01-11T06:43:23;63.03;;;19.50;;
35648;SDS011;21768;48.562;13.414;2024-01-11T06:45:48;50.70;;;19.60;;
35648;SDS011;21768;48.562;13.414;2024-01-11T06:48:14;51.60;;;19.40;;
35648;SDS011;21768;48.562;13.414;2024-01-11T06:50:39;56.50;;;19.95;;
35648;SDS011;21768;48.562;13.414;2024-01-11T06:53:04;48.65;;;18.80;;
35648;SDS011;21768;48.562;13.414;2024-01-11T06:55:30;54.67;;;19.00;;
35648;SDS011;21768;48.562;13.414;2024-01-11T06:57:55;49.72;;;19.80;;
35648;SDS011;21768;48.562;13.414;2024-01-11T07:00:22;50.40;;;19.83;;
35648;SDS011;21768;48.562;13.414;2024-01-11T07:02:48;59.78;;;19.25;;
35648;SDS011;21768;48.562;13.414;2024-01-11T07:05:13;55.72;;;20.35;;
35648;SDS011;21768;48.562;13.414;2024-01-11T07:07:38;56.47;;;19.55;;
35648;SDS011;21768;48.562;13.414;2024-01-11T07:10:04;60.05;;;20.15;;
35648;SDS011;21768;48.562;13.414;2024-01-11T07:12:30;61.92;;;20.13;;
35648;SDS011;21768;48.562;13.414;2024-01-11T07:14:56;53.65;;;19.83;;
35648;SDS011;21768;48.562;13.414;2024-01-11T07:17:21;50.78;;;19.08;;
35648;SDS011;21768;48.562;13.414;2024-01-11T07:19:47;55.53;;;19.75;;
35648;SDS011;21768;48.562;13.414;2024-01-11T07:22:13;50.65;;;19.92;;
35648;SDS011;21768;48.562;13.414;2024-01-11T07:24:38;53.22;;;18.92;;
35648;SDS011;21768;48.562;13.414;2024-01-11T07:27:04;50.55;;;19.60;;
35648;SDS011;21768;48.562;13.414;2024-01-11T07:29:30;55.60;;;18.75;;
35648;SDS011;21768;48.562;13.414;2024-01-11T07:31:56;56.15;;;19.48;;
35648;SDS011;21768;48.562;13.414;2024-01-11T07:34:21;55.83;;;20.70;;
35648;SDS011;21768;48.562;13.414;2024-01-11T07:36:47;66.70;;;24.90;;
35648;SDS011;21768;48.562;13.414;2024-01-11T07:39:12;64.97;;;24.67;;
35648;SDS011;21768;48.562;13.414;2024-01-11T07:41:38;66.93;;;26.67;;
35648;SDS011;21768;48.562;13.414;2024-01-11T07:44:03;81.05;;;26.35;;
35648;SDS011;21768;48.562;13.414;2024-01-11T07:46:29;76.78;;;25.02;;
35648;SDS011;21768;48.562;13.414;2024-01-11T07:48:54;62.85;;;23.90;;
35648;SDS011;21768;48.562;13.414;2024-01-11T07:51:20;66.53;;;24.00;;
35648;SDS011;21768;48.562;13.414;2024-01-11T07:53:45;67.78;;;23.10;;
35648;SDS011;21768;48.562;13.414;2024-01-11T07:56:11;71.85;;;23.88;;
35648;SDS011;21768;48.562;13.414;2024-01-11T07:58:36;72.50;;;25.63;;
35648;SDS011;21768;48.562;13.414;2024-01-11T08:01:03;69.38;;;26.17;;
35648;SDS011;21768;48.562;13.414;2024-01-11T08:03:29;78.43;;;27.67;;
35648;SDS011;21768;48.562;13.414;2024-01-11T08:05:55;64.93;;;25.27;;
35648;SDS011;21768;48.562;13.414;2024-01-11T08:08:20;71.53;;;25.75;;
35648;SDS011;21768;48.562;13.414;2024-01-11T08:10:47;66.68;;;24.13;;
35648;SDS011;21768;48.562;13.414;2024-01-11T08:13:13;64.90;;;22.52;;
35648;SDS011;21768;48.562;13.414;2024-01-11T08:15:39;72.22;;;24.73;;
35648;SDS011;21768;48.562;13.414;2024-01-11T08:18:04;62.47;;;23.90;;
35648;SDS011;21768;48.562;13.414;2024-01-11T08:20:30;64.00;;;23.77;;
35648;SDS011;21768;48.562;13.414;2024-01-11T08:22:55;59.13;;;22.08;;
35648;SDS011;21768;48.562;13.414;2024-01-11T08:25:21;59.83;;;21.85;;
35648;SDS011;21768;48.562;13.414;2024-01-11T08:27:47;65.88;;;22.23;;
35648;SDS011;21768;48.562;13.414;2024-01-11T08:30:13;70.75;;;23.75;;
35648;SDS011;21768;48.562;13.414;2024-01-11T08:32:39;66.57;;;23.63;;
35648;SDS011;21768;48.562;13.414;2024-01-11T08:35:06;62.88;;;23.50;;
35648;SDS011;21768;48.562;13.414;2024-01-11T08:37:34;56.70;;;21.33;;
35648;SDS011;21768;48.562;13.414;2024-01-11T08:40:00;61.85;;;22.13;;
35648;SDS011;21768;48.562;13.414;2024-01-11T08:42:26;63.33;;;22.17;;
35648;SDS011;21768;48.562;13.414;2024-01-11T08:44:51;53.03;;;22.65;;
35648;SDS011;21768;48.562;13.414;2024-01-11T08:47:18;63.30;;;23.33;;
35648;SDS011;21768;48.562;13.414;2024-01-11T08:49:43;62.42;;;23.13;;
35648;SDS011;21768;48.562;13.414;2024-01-11T08:52:09;64.72;;;23.98;;
35648;SDS011;21768;48.562;13.414;2024-01-11T08:54:34;66.88;;;23.80;;
35648;SDS011;21768;48.562;13.414;2024-01-11T08:56:59;70.00;;;25.45;;
35648;SDS011;21768;48.562;13.414;2024-01-11T08:59:25;72.70;;;24.63;;
35648;SDS011;21768;48.562;13.414;2024-01-11T09:01:53;67.82;;;25.70;;
35648;SDS011;21768;48.562;13.414;2024-01-11T09:04:19;66.45;;;26.02;;
35648;SDS011;21768;48.562;13.414;2024-01-11T09:06:44;66.38;;;27.08;;
35648;SDS011;21768;48.562;13.414;2024-01-11T09:09:10;73.35;;;26.35;;
35648;SDS011;21768;48.562;13.414;2024-01-11T09:11:39;62.40;;;26.25;;
35648;SDS011;21768;48.562;13.414;2024-01-11T09:14:08;69.05;;;26.35;;
35648;SDS011;21768;48.562;13.414;2024-01-11T09:16:37;59.45;;;24.13;;
35648;SDS011;21768;48.562;13.414;2024-01-11T09:19:04;66.35;;;24.95;;
35648;SDS011;21768;48.562;13.414;2024-01-11T09:21:29;61.20;;;26.08;;
35648;SDS011;21768;48.562;13.414;2024-01-11T09:23:55;53.78;;;23.80;;
35648;SDS011;21768;48.562;13.414;2024-01-11T09:26:20;60.63;;;26.70;;
35648;SDS011;21768;48.562;13.414;2024-01-11T09:28:47;64.57;;;27.27;;
35648;SDS011;21768;48.562;13.414;2024-01-11T09:31:13;62.45;;;25.63;;
35648;SDS011;21768;48.562;13.414;2024-01-11T09:33:38;58.13;;;26.05;;
35648;SDS011;21768;48.562;13.414;2024-01-11T09:36:03;53.28;;;24.55;;
35648;SDS011;21768;48.562;13.414;2024-01-11T09:38:29;59.90;;;25.85;;
35648;SDS011;21768;48.562;13.414;2024-01-11T09:41:01;62.45;;;27.23;;
35648;SDS011;21768;48.562;13.414;2024-01-11T09:43:33;63.38;;;28.10;;
35648;SDS011;21768;48.562;13.414;2024-01-11T09:46:00;61.92;;;28.05;;
35648;SDS011;21768;48.562;13.414;2024-01-11T09:48:30;62.45;;;26.73;;
35648;SDS011;21768;48.562;13.414;2024-01-11T09:50:57;61.17;;;27.65;;
35648;SDS011;21768;48.562;13.414;2024-01-11T09:53:26;59.00;;;26.85;;
35648;SDS011;21768;48.562;13.414;2024-01-11T09:55:52;64.93;;;28.83;;
35648;SDS011;21768;48.562;13.414;2024-01-11T09:58:20;59.58;;;27.83;;
35648;SDS011;21768;48.562;13.414;2024-01-11T10:00:46;56.60;;;27.55;;
35648;SDS011;21768;48.562;13.414;2024-01-11T10:03:15;60.47;;;27.73;;
35648;SDS011;21768;48.562;13.414;2024-01-11T10:05:41;58.50;;;27.77;;
35648;SDS011;21768;48.562;13.414;2024-01-11T10:08:07;57.63;;;28.73;;
35648;SDS011;21768;48.562;13.414;2024-01-11T10:10:33;62.95;;;28.13;;
35648;SDS011;21768;48.562;13.414;2024-01-11T10:12:58;65.32;;;29.95;;
35648;SDS011;21768;48.562;13.414;2024-01-11T10:15:24;59.85;;;28.55;;
35648;SDS011;21768;48.562;13.414;2024-01-11T10:17:49;63.17;;;28.27;;
35648;SDS011;21768;48.562;13.414;2024-01-11T10:20:15;69.95;;;29.60;;
35648;SDS011;21768;48.562;13.414;2024-01-11T10:22:42;58.83;;;26.73;;
35648;SDS011;21768;48.562;13.414;2024-01-11T10:25:11;60.50;;;27.65;;
35648;SDS011;21768;48.562;13.414;2024-01-11T10:27:42;68.30;;;28.98;;
35648;SDS011;21768;48.562;13.414;2024-01-11T10:30:10;64.88;;;28.02;;
35648;SDS011;21768;48.562;13.414;2024-01-11T10:32:38;66.20;;;27.50;;
35648;SDS011;21768;48.562;13.414;2024-01-11T10:35:04;63.35;;;26.77;;
35648;SDS011;21768;48.562;13.414;2024-01-11T10:37:32;61.78;;;27.73;;
35648;SDS011;21768;48.562;13.414;2024-01-11T10:39:58;59.17;;;26.40;;
35648;SDS011;21768;48.562;13.414;2024-01-11T10:42:27;60.53;;;25.80;;
35648;SDS011;21768;48.562;13.414;2024-01-11T10:44:56;57.80;;;27.27;;
35648;SDS011;21768;48.562;13.414;2024-01-11T10:47:30;64.57;;;28.65;;
35648;SDS011;21768;48.562;13.414;2024-01-11T10:49:56;63.38;;;28.23;;
35648;SDS011;21768;48.562;13.414;2024-01-11T10:52:27;58.38;;;26.02;;
35648;SDS011;21768;48.562;13.414;2024-01-11T10:54:58;61.33;;;26.95;;
35648;SDS011;21768;48.562;13.414;2024-01-11T10:57:25;55.20;;;27.10;;
35648;SDS011;21768;48.562;13.414;2024-01-11T10:59:52;60.97;;;27.00;;
35648;SDS011;21768;48.562;13.414;2024-01-11T11:02:19;61.92;;;27.20;;
35648;SDS011;21768;48.562;13.414;2024-01-11T11:04:46;54.67;;;27.05;;
35648;SDS011;21768;48.562;13.414;2024-01-11T11:07:13;59.95;;;28.02;;
35648;SDS011;21768;48.562;13.414;2024-01-11T11:09:40;67.15;;;32.75;;
35648;SDS011;21768;48.562;13.414;2024-01-11T11:12:09;61.22;;;30.10;;
35648;SDS011;21768;48.562;13.414;2024-01-11T11:14:36;63.10;;;29.13;;
35648;SDS011;21768;48.562;13.414;2024-01-11T11:17:03;59.38;;;29.35;;
35648;SDS011;21768;48.562;13.414;2024-01-11T11:19:29;69.55;;;30.30;;
35648;SDS011;21768;48.562;13.414;2024-01-11T11:21:55;57.83;;;29.80;;
35648;SDS011;21768;48.562;13.414;2024-01-11T11:24:20;58.03;;;29.60;;
35648;SDS011;21768;48.562;13.414;2024-01-11T11:26:46;57.55;;;29.58;;
35648;SDS011;21768;48.562;13.414;2024-01-11T11:29:12;63.97;;;32.53;;
35648;SDS011;21768;48.562;13.414;2024-01-11T11:31:38;65.13;;;30.20;;
35648;SDS011;21768;48.562;13.414;2024-01-11T11:34:07;62.15;;;30.70;;
35648;SDS011;21768;48.562;13.414;2024-01-11T11:36:36;65.65;;;30.75;;
35648;SDS011;21768;48.562;13.414;2024-01-11T11:39:01;57.33;;;29.95;;
35648;SDS011;21768;48.562;13.414;2024-01-11T11:41:27;65.20;;;31.33;;
35648;SDS011;21768;48.562;13.414;2024-01-11T11:44:00;58.00;;;29.90;;
35648;SDS011;21768;48.562;13.414;2024-01-11T11:46:26;65.30;;;31.88;;
35648;SDS011;21768;48.562;13.414;2024-01-11T11:48:51;58.38;;;30.98;;
35648;SDS011;21768;48.562;13.414;2024-01-11T11:51:20;54.90;;;30.08;;
35648;SDS011;21768;48.562;13.414;2024-01-11T11:53:47;72.22;;;37.42;;
35648;SDS011;21768;48.562;13.414;2024-01-11T11:56:14;66.30;;;31.98;;
35648;SDS011;21768;48.562;13.414;2024-01-11T11:58:42;59.85;;;31.42;;
35648;SDS011;21768;48.562;13.414;2024-01-11T12:01:08;61.40;;;30.83;;
35648;SDS011;21768;48.562;13.414;2024-01-11T12:03:34;65.38;;;31.50;;
35648;SDS011;21768;48.562;13.414;2024-01-11T12:06:02;59.13;;;30.75;;
35648;SDS011;21768;48.562;13.414;2024-01-11T12:08:28;62.88;;;32.20;;
35648;SDS011;21768;48.562;13.414;2024-01-11T12:10:54;62.97;;;31.27;;
35648;SDS011;21768;48.562;13.414;2024-01-11T12:13:19;66.95;;;30.27;;
35648;SDS011;21768;48.562;13.414;2024-01-11T12:15:45;58.28;;;30.60;;
35648;SDS011;21768;48.562;13.414;2024-01-11T12:18:11;66.97;;;32.53;;
35648;SDS011;21768;48.562;13.414;2024-01-11T12:20:36;57.80;;;30.00;;
35648;SDS011;21768;48.562;13.414;2024-01-11T12:23:02;68.68;;;35.25;;
35648;SDS011;21768;48.562;13.414;2024-01-11T12:25:28;63.72;;;32.70;;
35648;SDS011;21768;48.562;13.414;2024-01-11T12:27:54;60.78;;;31.08;;
35648;SDS011;21768;48.562;13.414;2024-01-11T12:30:22;58.35;;;31.67;;
35648;SDS011;21768;48.562;13.414;2024-01-11T12:32:48;57.63;;;30.92;;
35648;SDS011;21768;48.562;13.414;2024-01-11T12:35:14;66.13;;;34.58;;
35648;SDS011;21768;48.562;13.414;2024-01-11T12:37:40;60.58;;;31.10;;
35648;SDS011;21768;48.562;13.414;2024-01-11T12:40:06;59.00;;;30.08;;
35648;SDS011;21768;48.562;13.414;2024-01-11T12:42:35;55.88;;;30.02;;
35648;SDS011;21768;48.562;13.414;2024-01-11T12:45:00;53.83;;;28.45;;
35648;SDS011;21768;48.562;13.414;2024-01-11T12:47:26;64.30;;;30.77;;
35648;SDS011;21768;48.562;13.414;2024-01-11T12:49:51;62.03;;;31.30;;
35648;SDS011;21768;48.562;13.414;2024-01-11T12:52:20;63.25;;;31.17;;
35648;SDS011;21768;48.562;13.414;2024-01-11T12:54:45;63.92;;;32.08;;
35648;SDS011;21768;48.562;13.414;2024-01-11T12:57:20;64.40;;;31.63;;
35648;SDS011;21768;48.562;13.414;2024-01-11T12:59:46;68.32;;;31.65;;
35648;SDS011;21768;48.562;13.414;2024-01-11T13:02:11;68.20;;;32.95;;
35648;SDS011;21768;48.562;13.414;2024-01-11T13:04:39;73.10;;;32.08;;
35648;SDS011;21768;48.562;13.414;2024-01-11T13:07:04;71.10;;;33.50;;
35648;SDS011;21768;48.562;13.414;2024-01-11T13:09:31;73.47;;;32.30;;
35648;SDS011;21768;48.562;13.414;2024-01-11T13:11:56;77.38;;;33.70;;
35648;SDS011;21768;48.562;13.414;2024-01-11T13:14:22;82.20;;;35.10;;
35648;SDS011;21768;48.562;13.414;2024-01-11T13:16:48;75.05;;;33.17;;
35648;SDS011;21768;48.562;13.414;2024-01-11T13:19:14;77.82;;;33.90;;
35648;SDS011;21768;48.562;13.414;2024-01-11T13:21:39;73.20;;;31.98;;
35648;SDS011;21768;48.562;13.414;2024-01-11T13:24:06;78.63;;;33.63;;
35648;SDS011;21768;48.562;13.414;2024-01-11T13:26:33;79.63;;;32.33;;
35648;SDS011;21768;48.562;13.414;2024-01-11T13:28:59;75.85;;;33.17;;
35648;SDS011;21768;48.562;13.414;2024-01-11T13:31:24;73.70;;;31.75;;
35648;SDS011;21768;48.562;13.414;2024-01-11T13:33:50;78.07;;;32.65;;
35648;SDS011;21768;48.562;13.414;2024-01-11T13:36:15;80.95;;;33.38;;
35648;SDS011;21768;48.562;13.414;2024-01-11T13:38:41;79.22;;;31.63;;
35648;SDS011;21768;48.562;13.414;2024-01-11T13:41:06;83.90;;;33.33;;
35648;SDS011;21768;48.562;13.414;2024-01-11T13:43:33;80.10;;;33.15;;
35648;SDS011;21768;48.562;13.414;2024-01-11T13:45:59;77.65;;;32.47;;
35648;SDS011;21768;48.562;13.414;2024-01-11T13:48:25;75.65;;;31.85;;
35648;SDS011;21768;48.562;13.414;2024-01-11T13:50:51;81.80;;;34.63;;
35648;SDS011;21768;48.562;13.414;2024-01-11T13:53:16;83.28;;;32.17;;
35648;SDS011;21768;48.562;13.414;2024-01-11T13:55:41;87.15;;;32.63;;
35648;SDS011;21768;48.562;13.414;2024-01-11T13:58:07;82.35;;;34.60;;
35648;SDS011;21768;48.562;13.414;2024-01-11T14:00:32;77.13;;;34.10;;
35648;SDS011;21768;48.562;13.414;2024-01-11T14:02:58;79.57;;;32.17;;